createdAt,value
2019-03-22T00:00:36.296Z,22.30
2019-03-22T00:03:25.115Z,22.20
2019-03-22T00:06:13.365Z,22.30
2019-03-22T00:09:00.299Z,22.30
2019-03-22T00:11:47.099Z,22.30
2019-03-22T00:14:33.452Z,22.30
2019-03-22T00:17:20.519Z,22.20
2019-03-22T00:20:07.904Z,22.20
2019-03-22T00:22:54.891Z,22.30
2019-03-22T00:25:42.848Z,22.20
2019-03-22T00:28:29.920Z,22.30
2019-03-22T00:31:16.754Z,22.30
2019-03-22T00:34:05.075Z,22.30
2019-03-22T00:36:52.115Z,22.20
2019-03-22T00:39:39.033Z,22.20
2019-03-22T00:42:27.713Z,22.20
2019-03-22T00:45:14.349Z,22.20
2019-03-22T00:48:01.216Z,22.20
2019-03-22T00:50:48.253Z,22.30
2019-03-22T00:53:34.968Z,22.30
2019-03-22T00:56:21.847Z,22.30
2019-03-22T00:59:08.763Z,22.20
2019-03-22T01:01:55.379Z,22.20
2019-03-22T01:04:42.169Z,22.20
2019-03-22T01:07:29.279Z,22.20
2019-03-22T01:10:16.607Z,22.20
2019-03-22T01:13:03.131Z,22.20
2019-03-22T01:15:49.432Z,22.20
2019-03-22T01:18:36.627Z,22.30
2019-03-22T01:21:23.367Z,22.30
2019-03-22T01:24:12.060Z,22.20
2019-03-22T01:26:58.874Z,22.20
2019-03-22T01:29:45.929Z,22.30
2019-03-22T01:32:32.793Z,22.20
2019-03-22T01:35:20.071Z,22.20
2019-03-22T01:38:07.030Z,22.20
2019-03-22T01:40:54.408Z,22.20
2019-03-22T01:43:41.344Z,22.20
2019-03-22T01:46:28.340Z,22.20
2019-03-22T01:49:15.047Z,22.20
2019-03-22T01:52:02.022Z,22.20
2019-03-22T01:54:48.587Z,22.20
2019-03-22T01:57:34.907Z,22.20
2019-03-22T02:00:21.879Z,22.20
2019-03-22T02:03:09.955Z,22.20
2019-03-22T02:05:56.655Z,22.20
2019-03-22T02:08:44.669Z,22.20
2019-03-22T02:11:31.624Z,22.20
2019-03-22T02:14:18.547Z,22.20
2019-03-22T02:17:05.474Z,22.20
2019-03-22T02:19:52.471Z,22.20
2019-03-22T02:22:39.531Z,22.20
2019-03-22T02:25:26.489Z,22.20
2019-03-22T02:28:13.541Z,22.20
2019-03-22T02:31:02.235Z,22.20
2019-03-22T02:33:49.129Z,22.20
2019-03-22T02:36:36.323Z,22.20
2019-03-22T02:39:23.346Z,22.20
2019-03-22T02:42:10.149Z,22.30
2019-03-22T02:44:57.005Z,22.20
2019-03-22T02:47:45.127Z,22.30
2019-03-22T02:50:31.918Z,22.30
2019-03-22T02:53:19.229Z,22.30
2019-03-22T02:56:06.427Z,22.30
2019-03-22T02:58:53.372Z,22.30
2019-03-22T03:01:40.264Z,22.30
2019-03-22T03:04:27.155Z,22.30
2019-03-22T03:07:13.727Z,22.30
2019-03-22T03:10:00.540Z,22.20
2019-03-22T03:12:47.742Z,22.20
2019-03-22T03:15:34.942Z,22.20
2019-03-22T03:18:21.902Z,22.20
2019-03-22T03:21:09.181Z,22.20
2019-03-22T03:23:58.167Z,22.20
2019-03-22T03:26:45.155Z,22.20
2019-03-22T03:29:31.944Z,22.10
2019-03-22T03:32:19.191Z,22.20
2019-03-22T03:35:07.925Z,22.20
2019-03-22T03:37:55.115Z,22.20
2019-03-22T03:40:42.040Z,22.20
2019-03-22T03:43:28.591Z,22.20
2019-03-22T03:46:15.620Z,22.20
2019-03-22T03:49:02.215Z,22.10
2019-03-22T03:51:49.139Z,22.20
2019-03-22T03:54:35.808Z,22.20
2019-03-22T03:57:22.986Z,22.20
2019-03-22T04:00:10.220Z,22.20
2019-03-22T04:02:57.977Z,22.20
2019-03-22T04:05:44.824Z,22.20
2019-03-22T04:08:31.702Z,22.20
2019-03-22T04:11:19.190Z,22.20
2019-03-22T04:14:05.935Z,22.20
2019-03-22T04:16:52.775Z,22.20
2019-03-22T04:19:39.224Z,22.30
2019-03-22T04:22:26.537Z,22.30
2019-03-22T04:25:13.317Z,22.20
2019-03-22T04:28:00.461Z,22.30
2019-03-22T04:30:47.552Z,22.30
2019-03-22T04:33:34.620Z,22.30
2019-03-22T04:36:23.221Z,22.30
2019-03-22T04:39:09.943Z,22.20
2019-03-22T04:41:56.348Z,22.20
2019-03-22T04:44:43.480Z,22.20
2019-03-22T04:47:31.439Z,22.20
2019-03-22T04:50:19.527Z,22.20
2019-03-22T04:53:08.589Z,22.20
2019-03-22T04:56:00.564Z,22.20
2019-03-22T04:58:50.365Z,22.20
2019-03-22T05:01:39.783Z,22.20
2019-03-22T05:04:26.096Z,22.20
2019-03-22T05:07:14.260Z,22.20
2019-03-22T05:10:01.656Z,22.20
2019-03-22T05:12:49.483Z,22.10
2019-03-22T05:15:37.991Z,22.10
2019-03-22T05:18:27.064Z,22.10
2019-03-22T05:21:15.599Z,22.20
2019-03-22T05:24:04.419Z,22.20
2019-03-22T05:26:54.051Z,22.20
2019-03-22T05:29:42.576Z,22.10
2019-03-22T05:32:29.342Z,22.20
2019-03-22T05:35:16.140Z,22.20
2019-03-22T05:38:03.035Z,22.20
2019-03-22T05:40:49.828Z,22.20
2019-03-22T05:43:36.111Z,22.20
2019-03-22T05:46:22.667Z,22.20
2019-03-22T05:49:09.539Z,22.20
2019-03-22T05:51:56.768Z,22.20
2019-03-22T05:54:43.819Z,22.30
2019-03-22T05:57:30.875Z,22.30
2019-03-22T06:00:18.169Z,22.30
2019-03-22T06:03:05.031Z,22.30
2019-03-22T06:05:52.039Z,22.30
2019-03-22T06:08:38.952Z,22.30
2019-03-22T06:11:25.745Z,22.30
2019-03-22T06:14:13.067Z,22.30
2019-03-22T06:17:01.256Z,22.30
2019-03-22T06:19:48.289Z,22.30
2019-03-22T06:22:35.343Z,22.30
2019-03-22T06:25:21.799Z,22.30
2019-03-22T06:28:09.317Z,22.30
2019-03-22T06:30:56.899Z,22.30
2019-03-22T06:33:43.612Z,22.30
2019-03-22T06:36:31.307Z,22.30
2019-03-22T06:39:17.892Z,22.40
2019-03-22T06:42:05.230Z,22.30
2019-03-22T06:44:52.428Z,22.30
2019-03-22T06:47:38.925Z,22.30
2019-03-22T06:50:25.858Z,22.30
2019-03-22T06:53:13.325Z,22.30
2019-03-22T06:56:00.039Z,22.30
2019-03-22T06:58:47.259Z,22.30
2019-03-22T07:01:35.731Z,22.30
2019-03-22T07:04:22.723Z,22.30
2019-03-22T07:07:11.013Z,22.40
2019-03-22T07:09:59.763Z,22.40
2019-03-22T07:12:46.291Z,22.40
2019-03-22T07:15:32.528Z,22.40
2019-03-22T07:18:19.296Z,22.60
2019-03-22T07:21:06.702Z,22.70
2019-03-22T07:23:53.100Z,22.70
2019-03-22T07:26:40.176Z,22.60
2019-03-22T07:29:27.055Z,22.60
2019-03-22T07:32:15.873Z,21.90
2019-03-22T07:35:02.651Z,20.60
2019-03-22T07:37:49.362Z,19.50
2019-03-22T07:40:36.467Z,18.50
2019-03-22T07:43:23.267Z,17.70
2019-03-22T07:46:10.260Z,17.20
2019-03-22T07:48:57.448Z,16.80
2019-03-22T07:51:43.955Z,16.30
2019-03-22T07:54:31.335Z,16.00
2019-03-22T07:57:18.557Z,15.80
2019-03-22T08:00:05.610Z,15.50
2019-03-22T08:02:52.363Z,15.30
2019-03-22T08:05:50.960Z,15.10
2019-03-22T08:08:28.560Z,15.00
2019-03-22T08:11:17.656Z,14.90
2019-03-22T08:14:04.551Z,14.80
2019-03-22T08:16:51.535Z,14.80
2019-03-22T08:19:38.483Z,14.60
2019-03-22T08:22:25.211Z,14.50
2019-03-22T08:25:12.008Z,14.40
2019-03-22T08:27:59.133Z,14.40
2019-03-22T08:30:45.852Z,14.30
2019-03-22T08:33:32.890Z,14.30
2019-03-22T08:36:19.872Z,14.30
2019-03-22T08:39:09.958Z,14.40
2019-03-22T08:41:56.921Z,14.70
2019-03-22T08:44:44.011Z,14.50
2019-03-22T08:47:34.277Z,14.40
2019-03-22T08:50:19.237Z,14.30
2019-03-22T08:53:06.174Z,14.20
2019-03-22T08:55:53.244Z,14.30
2019-03-22T08:58:40.306Z,14.30
2019-03-22T09:01:27.086Z,14.40
2019-03-22T09:04:16.400Z,14.40
2019-03-22T09:07:04.635Z,14.50
2019-03-22T09:09:55.646Z,14.70
2019-03-22T09:12:42.536Z,14.50
2019-03-22T09:15:40.704Z,14.50
2019-03-22T09:18:18.360Z,14.50
2019-03-22T09:21:05.067Z,14.40
2019-03-22T09:23:52.136Z,14.40
2019-03-22T09:26:47.492Z,14.40
2019-03-22T09:29:29.119Z,14.50
2019-03-22T09:32:15.842Z,14.50
2019-03-22T09:35:02.612Z,14.50
2019-03-22T09:37:49.417Z,14.60
2019-03-22T09:40:36.292Z,14.60
2019-03-22T09:43:23.110Z,14.40
2019-03-22T09:46:09.631Z,14.70
2019-03-22T09:48:58.239Z,15.50
2019-03-22T09:51:44.717Z,16.30
2019-03-22T09:54:31.247Z,16.80
2019-03-22T09:57:17.759Z,17.20
2019-03-22T10:00:06.273Z,17.50
2019-03-22T10:02:53.550Z,17.80
2019-03-22T10:05:40.449Z,18.00
2019-03-22T10:08:27.707Z,18.10
2019-03-22T10:11:14.096Z,18.30
2019-03-22T10:14:01.051Z,18.50
2019-03-22T10:16:47.908Z,18.60
2019-03-22T10:19:34.635Z,18.70
2019-03-22T10:22:21.037Z,18.90
2019-03-22T10:25:07.896Z,19.00
2019-03-22T10:27:54.654Z,19.10
2019-03-22T10:30:42.862Z,19.30
2019-03-22T10:33:29.583Z,19.40
2019-03-22T10:36:16.459Z,19.50
2019-03-22T10:39:05.548Z,19.60
2019-03-22T10:41:52.480Z,19.70
2019-03-22T10:44:39.529Z,19.80
2019-03-22T10:47:26.864Z,19.90
2019-03-22T10:50:13.590Z,19.90
2019-03-22T10:53:00.753Z,20.00
2019-03-22T10:55:47.540Z,20.10
2019-03-22T10:58:34.133Z,20.10
2019-03-22T11:01:21.324Z,20.20
2019-03-22T11:06:55.070Z,20.30
2019-03-22T11:09:42.324Z,20.40
2019-03-22T11:12:29.265Z,20.40
2019-03-22T11:15:16.230Z,20.50
2019-03-22T11:18:03.510Z,20.60
2019-03-22T11:20:50.434Z,20.70
2019-03-22T11:23:37.181Z,20.80
2019-03-22T11:26:24.270Z,20.90
2019-03-22T11:29:12.202Z,20.90
2019-03-22T11:31:59.154Z,20.90
2019-03-22T11:34:46.106Z,20.90
2019-03-22T11:37:33.239Z,20.90
2019-03-22T11:40:20.119Z,20.90
2019-03-22T11:43:09.049Z,20.80
2019-03-22T11:45:56.351Z,20.80
2019-03-22T11:48:44.397Z,20.80
2019-03-22T11:51:32.798Z,20.80
2019-03-22T11:54:20.116Z,20.90
2019-03-22T11:57:07.356Z,20.90
2019-03-22T11:59:54.029Z,20.90
2019-03-22T12:02:40.865Z,20.90
2019-03-22T12:05:27.891Z,20.90
2019-03-22T12:08:14.822Z,21.00
2019-03-22T12:11:01.688Z,21.00
2019-03-22T12:13:53.312Z,21.00
2019-03-22T12:16:40.559Z,21.10
2019-03-22T12:19:27.225Z,21.10
2019-03-22T12:22:14.205Z,21.10
2019-03-22T12:25:01.349Z,21.20
2019-03-22T12:27:48.529Z,21.20
2019-03-22T12:30:35.696Z,21.20
2019-03-22T12:33:22.539Z,21.20
2019-03-22T12:36:09.123Z,21.30
2019-03-22T12:38:55.874Z,21.30
2019-03-22T12:41:42.634Z,21.30
2019-03-22T12:44:30.813Z,21.30
2019-03-22T12:47:17.642Z,21.40
2019-03-22T12:50:06.007Z,21.40
2019-03-22T12:52:52.614Z,21.40
2019-03-22T12:55:39.626Z,21.40
2019-03-22T12:58:26.721Z,21.40
2019-03-22T13:01:13.801Z,21.50
2019-03-22T13:04:00.934Z,21.50
2019-03-22T13:06:49.272Z,21.50
2019-03-22T13:09:36.183Z,21.50
2019-03-22T13:12:22.966Z,21.60
2019-03-22T13:15:09.946Z,21.60
2019-03-22T13:17:56.997Z,21.60
2019-03-22T13:20:44.174Z,21.60
2019-03-22T13:23:31.361Z,21.60
2019-03-22T13:26:17.953Z,21.60
2019-03-22T13:29:06.571Z,21.70
2019-03-22T13:31:53.369Z,21.70
2019-03-22T13:34:41.179Z,21.70
2019-03-22T13:37:29.146Z,21.80
2019-03-22T13:40:16.238Z,21.80
2019-03-22T13:43:03.174Z,21.80
2019-03-22T13:45:50.094Z,21.80
2019-03-22T13:48:37.235Z,21.80
2019-03-22T13:51:24.207Z,21.90
2019-03-22T13:54:11.052Z,21.80
2019-03-22T13:56:58.379Z,21.90
2019-03-22T13:59:45.217Z,21.90
2019-03-22T14:02:32.149Z,21.90
2019-03-22T14:05:19.598Z,21.90
2019-03-22T14:08:06.438Z,21.90
2019-03-22T14:10:53.367Z,21.90
2019-03-22T14:13:40.223Z,21.90
2019-03-22T14:16:26.849Z,21.90
2019-03-22T14:19:13.700Z,21.90
2019-03-22T14:22:00.309Z,21.90
2019-03-22T14:24:49.124Z,21.90
2019-03-22T14:27:35.949Z,21.90
2019-03-22T14:30:22.914Z,21.90
2019-03-22T14:33:13.502Z,21.90
2019-03-22T14:36:00.862Z,21.90
2019-03-22T14:38:47.667Z,21.90
2019-03-22T14:41:35.459Z,21.90
2019-03-22T14:44:25.849Z,21.90
2019-03-22T14:47:12.852Z,21.90
2019-03-22T14:50:00.815Z,21.90
2019-03-22T14:52:50.465Z,21.90
2019-03-22T14:55:37.099Z,21.90
2019-03-22T14:58:23.892Z,21.90
2019-03-22T15:01:10.783Z,21.80
2019-03-22T15:04:01.486Z,21.90
2019-03-22T15:06:48.666Z,21.80
2019-03-22T15:09:35.357Z,21.80
2019-03-22T15:12:22.653Z,21.80
2019-03-22T15:15:20.629Z,21.80
2019-03-22T15:18:15.425Z,21.80
2019-03-22T15:21:24.062Z,21.70
2019-03-22T15:24:32.867Z,21.80
2019-03-22T15:27:43.727Z,21.80
2019-03-22T15:30:48.645Z,21.80
2019-03-22T15:33:53.928Z,21.80
2019-03-22T15:36:58.475Z,21.80
2019-03-22T15:40:00.500Z,21.80
2019-03-22T15:42:49.304Z,21.80
2019-03-22T15:45:35.804Z,21.80
2019-03-22T15:48:22.566Z,21.80
2019-03-22T15:51:09.394Z,21.80
2019-03-22T15:53:56.117Z,21.80
2019-03-22T15:56:43.944Z,21.80
2019-03-22T15:59:30.699Z,21.80
2019-03-22T16:02:17.539Z,21.80
2019-03-22T16:05:06.360Z,21.80
2019-03-22T16:07:52.694Z,21.80
2019-03-22T16:10:39.739Z,21.80
2019-03-22T16:13:45.675Z,21.80
2019-03-22T16:16:34.385Z,21.80
2019-03-22T16:19:21.047Z,21.80
2019-03-22T16:22:07.852Z,21.80
2019-03-22T16:24:54.518Z,21.80
2019-03-22T16:27:43.631Z,21.80
2019-03-22T16:30:32.965Z,21.80
2019-03-22T16:33:19.727Z,21.80
2019-03-22T16:36:08.217Z,21.80
2019-03-22T16:39:08.137Z,21.80
2019-03-22T16:41:58.448Z,21.80
2019-03-22T16:44:47.752Z,21.80
2019-03-22T16:47:35.754Z,21.80
2019-03-22T16:50:29.465Z,21.80
2019-03-22T16:53:16.470Z,21.80
2019-03-22T16:56:09.294Z,21.80
2019-03-22T16:58:59.430Z,21.80
2019-03-22T17:01:47.075Z,21.80
2019-03-22T17:04:33.579Z,21.80
2019-03-22T17:07:21.329Z,21.80
2019-03-22T17:10:42.775Z,21.70
2019-03-22T17:13:33.473Z,21.80
2019-03-22T17:16:20.434Z,21.80
2019-03-22T17:19:07.827Z,21.80
2019-03-22T17:21:57.959Z,21.70
2019-03-22T17:24:45.594Z,21.80
2019-03-22T17:27:34.611Z,21.80
2019-03-22T17:30:24.800Z,21.80
2019-03-22T17:33:16.067Z,21.80
2019-03-22T17:39:26.696Z,21.80
2019-03-22T17:42:15.734Z,21.80
2019-03-22T17:45:06.244Z,21.90
2019-03-22T17:47:56.722Z,21.90
2019-03-22T17:50:44.563Z,21.90
2019-03-22T17:53:32.263Z,21.90
2019-03-22T17:56:28.576Z,21.90
2019-03-22T17:59:22.276Z,21.90
2019-03-22T18:02:17.408Z,21.90
2019-03-22T18:05:09.147Z,21.80
2019-03-22T18:07:56.110Z,21.80
2019-03-22T18:10:42.875Z,21.80
2019-03-22T18:13:29.981Z,21.80
2019-03-22T18:16:17.052Z,21.10
2019-03-22T18:19:03.552Z,19.80
2019-03-22T18:21:50.907Z,18.70
2019-03-22T18:24:39.539Z,17.80
2019-03-22T18:27:26.597Z,17.10
2019-03-22T18:30:13.723Z,16.40
2019-03-22T18:33:03.951Z,16.00
2019-03-22T18:35:51.160Z,15.70
2019-03-22T18:38:40.155Z,15.30
2019-03-22T18:41:26.701Z,15.20
2019-03-22T18:44:13.699Z,15.00
2019-03-22T18:47:00.475Z,14.90
2019-03-22T18:49:49.057Z,14.70
2019-03-22T18:52:36.065Z,14.70
2019-03-22T18:55:22.719Z,14.50
2019-03-22T18:58:09.396Z,14.50
2019-03-22T19:00:56.734Z,14.40
2019-03-22T19:03:43.753Z,14.40
2019-03-22T19:06:30.504Z,14.40
2019-03-22T19:09:17.159Z,14.30
2019-03-22T19:12:04.143Z,14.30
2019-03-22T19:14:51.093Z,14.30
2019-03-22T19:17:38.245Z,14.40
2019-03-22T19:20:24.967Z,15.10
2019-03-22T19:23:13.874Z,16.10
2019-03-22T19:26:07.394Z,17.10
2019-03-22T19:28:55.945Z,17.80
2019-03-22T19:31:44.416Z,18.40
2019-03-22T19:34:31.211Z,18.90
2019-03-22T19:37:17.938Z,19.30
2019-03-22T19:40:06.110Z,19.60
2019-03-22T19:42:52.620Z,19.80
2019-03-22T19:45:39.482Z,20.00
2019-03-22T19:48:26.338Z,20.10
2019-03-22T19:51:15.248Z,20.20
2019-03-22T19:54:05.033Z,20.30
2019-03-22T19:56:54.504Z,20.30
2019-03-22T19:59:43.677Z,20.30
2019-03-22T20:02:30.501Z,20.40
2019-03-22T20:05:28.111Z,20.50
2019-03-22T20:08:14.943Z,20.50
2019-03-22T20:11:01.220Z,20.60
2019-03-22T20:13:49.050Z,20.70
2019-03-22T20:16:35.568Z,20.80
2019-03-22T20:19:22.479Z,20.90
2019-03-22T20:22:09.235Z,21.00
2019-03-22T20:24:55.641Z,21.00
2019-03-22T20:27:42.682Z,21.00
2019-03-22T20:30:29.432Z,21.00
2019-03-22T20:33:16.287Z,20.90
2019-03-22T20:36:03.464Z,20.90
2019-03-22T20:38:50.361Z,20.90
2019-03-22T20:41:37.885Z,20.90
2019-03-22T20:44:33.536Z,20.80
2019-03-22T20:47:13.736Z,20.80
2019-03-22T20:50:00.375Z,20.70
2019-03-22T20:52:47.194Z,20.70
2019-03-22T20:55:34.236Z,20.70
2019-03-22T20:58:20.954Z,20.70
2019-03-22T21:01:07.535Z,20.70
2019-03-22T21:03:54.588Z,20.70
2019-03-22T21:06:41.509Z,20.70
2019-03-22T21:09:48.790Z,20.80
2019-03-22T21:12:35.715Z,20.80
2019-03-22T21:15:24.730Z,20.80
2019-03-22T21:18:11.913Z,20.80
2019-03-22T21:20:59.661Z,20.80
2019-03-22T21:23:47.468Z,20.80
2019-03-22T21:26:34.397Z,20.80
2019-03-22T21:29:21.567Z,20.80
2019-03-22T21:32:08.484Z,20.90
2019-03-22T21:34:55.260Z,20.90
2019-03-22T21:37:42.231Z,20.90
2019-03-22T21:40:30.842Z,20.90
2019-03-22T21:43:18.307Z,20.90
2019-03-22T21:46:05.099Z,21.00
2019-03-22T21:48:52.251Z,21.00
2019-03-22T21:51:39.327Z,21.00
2019-03-22T21:54:26.147Z,21.00
2019-03-22T21:57:12.905Z,21.00
2019-03-22T22:00:00.424Z,21.00
2019-03-22T22:02:47.399Z,21.10
2019-03-22T22:05:34.325Z,21.10
2019-03-22T22:08:21.253Z,21.10
2019-03-22T22:11:08.439Z,21.10
2019-03-22T22:13:56.868Z,21.20
2019-03-22T22:16:43.777Z,21.20
2019-03-22T22:19:30.683Z,21.20
2019-03-22T22:22:17.679Z,21.20
2019-03-22T22:25:04.658Z,21.30
2019-03-22T22:27:51.359Z,21.30
2019-03-22T22:30:38.299Z,21.30
2019-03-22T22:33:24.611Z,21.40
2019-03-22T22:36:11.418Z,21.40
2019-03-22T22:38:58.088Z,21.40
2019-03-22T22:41:45.370Z,21.40
2019-03-22T22:44:32.084Z,21.50
2019-03-22T22:47:19.000Z,21.50
2019-03-22T22:50:06.032Z,21.60
2019-03-22T22:52:52.876Z,21.60
2019-03-22T22:55:40.354Z,21.60
2019-03-22T22:58:27.168Z,21.60
2019-03-22T23:01:14.174Z,21.60
2019-03-22T23:04:01.157Z,21.60
2019-03-22T23:06:48.528Z,21.70
2019-03-22T23:09:35.391Z,21.60
2019-03-22T23:12:21.794Z,21.60
2019-03-22T23:15:09.255Z,21.60
2019-03-22T23:17:55.824Z,21.70
2019-03-22T23:20:42.422Z,21.70
2019-03-22T23:23:29.443Z,21.70
2019-03-22T23:26:16.323Z,21.70
2019-03-22T23:29:03.179Z,21.70
2019-03-22T23:31:50.219Z,21.70
2019-03-22T23:34:38.140Z,21.70
2019-03-22T23:37:24.975Z,21.70
2019-03-22T23:40:11.892Z,21.70
2019-03-22T23:42:58.466Z,21.70
2019-03-22T23:45:45.373Z,21.80
2019-03-22T23:48:32.292Z,21.80
2019-03-22T23:51:19.228Z,21.80
2019-03-22T23:54:06.090Z,21.80
2019-03-22T23:56:53.211Z,21.80
2019-03-22T23:59:39.982Z,21.80
